createdAt,value
2022-10-03T00:02:02.498Z,7.65
2022-10-03T00:05:17.688Z,9.02
2022-10-03T00:07:52.631Z,9.25
2022-10-03T00:10:37.374Z,10.18
2022-10-03T00:13:20.093Z,10.23
2022-10-03T00:16:15.255Z,9.75
2022-10-03T00:19:07.020Z,11.15
2022-10-03T00:22:04.648Z,11.70
2022-10-03T00:24:53.257Z,11.48
2022-10-03T00:27:45.652Z,11.25
2022-10-03T00:30:24.959Z,10.73
2022-10-03T00:35:42.205Z,10.75
2022-10-03T00:38:40.019Z,10.93
2022-10-03T00:41:31.659Z,10.95
2022-10-03T00:44:29.157Z,10.63
2022-10-03T00:47:13.840Z,10.75
2022-10-03T00:50:02.749Z,10.90
2022-10-03T00:53:12.129Z,11.27
2022-10-03T00:55:53.348Z,11.20
2022-10-03T00:58:34.982Z,10.45
2022-10-03T01:01:42.328Z,10.93
2022-10-03T01:04:21.440Z,12.02
2022-10-03T01:06:56.246Z,11.02
2022-10-03T01:09:33.003Z,11.93
2022-10-03T01:12:25.206Z,11.68
2022-10-03T01:14:57.812Z,11.98
2022-10-03T01:17:47.228Z,11.40
2022-10-03T01:20:35.368Z,11.00
2022-10-03T01:23:29.120Z,25.77
2022-10-03T01:26:30.092Z,14.98
2022-10-03T01:29:49.014Z,14.02
2022-10-03T01:32:15.453Z,12.05
2022-10-03T01:34:52.901Z,13.05
2022-10-03T01:37:29.839Z,12.88
2022-10-03T01:40:37.113Z,13.35
2022-10-03T01:43:32.839Z,13.05
2022-10-03T01:46:27.938Z,12.98
2022-10-03T01:49:19.584Z,12.43
2022-10-03T01:51:59.981Z,13.07
2022-10-03T01:54:58.845Z,13.20
2022-10-03T01:57:46.979Z,13.07
2022-10-03T02:00:20.170Z,13.93
2022-10-03T02:03:09.938Z,14.52
2022-10-03T02:05:54.582Z,16.20
2022-10-03T02:08:28.723Z,16.30
2022-10-03T02:11:08.224Z,16.55
2022-10-03T02:13:40.881Z,14.77
2022-10-03T02:16:30.882Z,16.58
2022-10-03T02:19:26.221Z,16.92
2022-10-03T02:21:55.247Z,18.05
2022-10-03T02:24:36.908Z,17.55
2022-10-03T02:27:52.354Z,18.35
2022-10-03T02:31:06.257Z,17.45
2022-10-03T02:34:06.689Z,17.25
2022-10-03T02:37:23.355Z,17.75
2022-10-03T02:40:17.380Z,17.05
2022-10-03T02:43:25.259Z,19.05
2022-10-03T02:46:07.844Z,15.98
2022-10-03T02:49:18.367Z,16.00
2022-10-03T02:52:11.431Z,14.85
2022-10-03T02:54:56.992Z,13.55
2022-10-03T02:57:31.645Z,14.07
2022-10-03T03:00:11.784Z,14.07
2022-10-03T03:03:01.933Z,14.05
2022-10-03T03:05:56.022Z,13.40
2022-10-03T03:08:35.803Z,14.15
2022-10-03T03:11:33.142Z,12.90
2022-10-03T03:14:41.454Z,14.57
2022-10-03T03:17:34.778Z,14.17
2022-10-03T03:20:38.850Z,15.52
2022-10-03T03:23:37.016Z,16.13
2022-10-03T03:26:15.538Z,14.23
2022-10-03T03:29:00.121Z,15.18
2022-10-03T03:32:03.576Z,14.88
2022-10-03T03:34:37.807Z,14.10
2022-10-03T03:37:20.994Z,16.30
2022-10-03T03:40:22.257Z,15.10
2022-10-03T03:43:05.341Z,15.90
2022-10-03T03:45:41.456Z,16.25
2022-10-03T03:48:22.900Z,15.40
2022-10-03T03:51:13.319Z,15.60
2022-10-03T03:53:54.955Z,14.40
2022-10-03T03:56:55.431Z,14.65
2022-10-03T03:59:41.540Z,16.83
2022-10-03T04:02:26.852Z,15.02
2022-10-03T04:05:08.394Z,15.32
2022-10-03T04:07:51.449Z,15.55
2022-10-03T04:10:38.130Z,14.50
2022-10-03T04:13:39.370Z,14.50
2022-10-03T04:16:40.265Z,14.40
2022-10-03T04:19:26.052Z,14.10
2022-10-03T04:22:18.558Z,13.77
2022-10-03T04:25:04.216Z,15.35
2022-10-03T04:27:30.739Z,15.65
2022-10-03T04:30:18.611Z,13.85
2022-10-03T04:33:20.660Z,13.75
2022-10-03T04:36:28.947Z,12.40
2022-10-03T04:39:29.655Z,12.40
2022-10-03T04:42:13.716Z,11.93
2022-10-03T04:44:58.940Z,12.65
2022-10-03T04:47:42.502Z,13.70
2022-10-03T04:50:24.445Z,11.98
2022-10-03T04:53:09.607Z,13.05
2022-10-03T04:55:45.734Z,13.40
2022-10-03T04:58:21.472Z,12.23
2022-10-03T05:01:13.127Z,12.73
2022-10-03T05:03:54.471Z,13.00
2022-10-03T05:06:29.922Z,12.77
2022-10-03T05:09:13.204Z,13.57
2022-10-03T05:11:55.566Z,13.63
2022-10-03T05:14:28.158Z,11.63
2022-10-03T05:17:06.090Z,12.20
2022-10-03T05:20:00.272Z,12.38
2022-10-03T05:22:57.112Z,11.02
2022-10-03T05:25:46.613Z,10.20
2022-10-03T05:28:30.721Z,9.07
2022-10-03T05:31:04.273Z,9.10
2022-10-03T05:34:00.030Z,8.90
2022-10-03T05:37:08.748Z,9.68
2022-10-03T05:40:00.213Z,10.02
2022-10-03T05:42:52.508Z,9.38
2022-10-03T05:45:47.283Z,10.85
2022-10-03T05:48:33.016Z,10.57
2022-10-03T05:51:12.301Z,11.77
2022-10-03T05:56:42.954Z,12.60
2022-10-03T05:59:28.863Z,11.80
2022-10-03T06:02:32.959Z,12.15
2022-10-03T06:05:15.328Z,12.07
2022-10-03T06:08:16.340Z,12.48
2022-10-03T06:11:11.565Z,12.20
2022-10-03T06:13:44.011Z,13.00
2022-10-03T06:16:27.009Z,12.48
2022-10-03T06:19:12.103Z,12.75
2022-10-03T06:22:06.336Z,12.43
2022-10-03T06:24:57.260Z,12.77
2022-10-03T06:27:49.433Z,11.65
2022-10-03T06:30:34.113Z,11.18
2022-10-03T06:33:33.534Z,10.32
2022-10-03T06:36:24.881Z,10.32
2022-10-03T06:39:10.290Z,10.88
2022-10-03T06:42:15.473Z,10.52
2022-10-03T06:45:04.995Z,10.55
2022-10-03T06:47:34.896Z,10.93
2022-10-03T06:50:36.138Z,11.27
2022-10-03T06:53:12.043Z,14.48
2022-10-03T06:56:00.295Z,12.48
2022-10-03T06:58:53.543Z,12.43
2022-10-03T07:01:58.652Z,10.82
2022-10-03T07:04:50.267Z,9.80
2022-10-03T07:07:44.310Z,9.25
2022-10-03T07:10:28.838Z,10.82
2022-10-03T07:13:22.529Z,9.45
2022-10-03T07:16:25.045Z,8.60
2022-10-03T07:18:54.513Z,9.00
2022-10-03T07:21:59.357Z,8.57
2022-10-03T07:25:01.655Z,9.38
2022-10-03T07:27:52.575Z,18.33
2022-10-03T07:30:24.109Z,22.55
2022-10-03T07:33:28.611Z,9.20
2022-10-03T07:36:49.624Z,7.50
2022-10-03T07:39:34.013Z,6.85
2022-10-03T07:42:29.418Z,6.65
2022-10-03T07:45:30.092Z,6.90
2022-10-03T07:48:05.262Z,5.93
2022-10-03T07:50:58.875Z,5.93
2022-10-03T07:53:44.124Z,5.88
2022-10-03T07:56:30.941Z,5.75
2022-10-03T07:59:35.415Z,5.55
2022-10-03T08:02:21.483Z,5.85
2022-10-03T08:05:18.802Z,5.68
2022-10-03T08:07:51.199Z,5.30
2022-10-03T08:10:55.666Z,5.57
2022-10-03T08:13:41.322Z,5.38
2022-10-03T08:16:30.004Z,5.38
2022-10-03T08:21:56.656Z,4.80
2022-10-03T08:25:02.915Z,5.47
2022-10-03T08:27:58.663Z,4.15
2022-10-03T08:30:43.420Z,4.68
2022-10-03T08:33:23.775Z,4.10
2022-10-03T08:36:20.791Z,4.15
2022-10-03T08:39:02.131Z,3.90
2022-10-03T08:42:06.389Z,3.80
2022-10-03T08:44:50.101Z,3.75
2022-10-03T08:47:35.508Z,2.72
2022-10-03T08:50:13.865Z,3.05
2022-10-03T08:55:16.010Z,2.67
2022-10-03T08:58:20.739Z,3.15
2022-10-03T09:01:18.479Z,3.10
2022-10-03T09:04:23.085Z,3.10
2022-10-03T09:07:23.274Z,3.05
2022-10-03T09:10:10.324Z,3.08
2022-10-03T09:12:59.781Z,3.08
2022-10-03T09:15:41.805Z,2.72
2022-10-03T09:18:46.027Z,3.00
2022-10-03T09:21:37.127Z,2.78
2022-10-03T09:24:31.330Z,1.90
2022-10-03T09:27:26.741Z,2.30
2022-10-03T09:30:14.566Z,2.25
2022-10-03T09:33:15.332Z,2.00
2022-10-03T09:35:45.156Z,1.48
2022-10-03T09:38:42.034Z,1.20
2022-10-03T09:41:23.677Z,1.38
2022-10-03T09:44:18.499Z,1.05
2022-10-03T09:47:23.474Z,1.55
2022-10-03T09:50:08.645Z,1.63
2022-10-03T09:52:43.948Z,2.00
2022-10-03T09:55:43.154Z,1.80
2022-10-03T09:58:36.180Z,1.55
2022-10-03T10:01:29.271Z,1.25
2022-10-03T10:04:22.086Z,1.38
2022-10-03T10:07:11.041Z,1.50
2022-10-03T10:09:49.985Z,1.50
2022-10-03T10:15:06.791Z,1.35
2022-10-03T10:17:52.376Z,1.10
2022-10-03T10:20:39.079Z,1.42
2022-10-03T10:23:18.240Z,1.23
2022-10-03T10:26:27.388Z,1.60
2022-10-03T10:29:02.881Z,1.85
2022-10-03T10:32:03.161Z,2.10
2022-10-03T10:34:47.936Z,1.73
2022-10-03T10:37:47.799Z,1.80
2022-10-03T10:40:50.772Z,1.80
2022-10-03T10:44:05.457Z,1.58
2022-10-03T10:47:09.393Z,1.60
2022-10-03T10:49:49.518Z,1.58
2022-10-03T10:52:34.756Z,1.90
2022-10-03T10:55:36.485Z,1.48
2022-10-03T10:58:25.419Z,1.55
2022-10-03T11:04:13.388Z,1.60
2022-10-03T11:06:43.759Z,1.88
2022-10-03T11:09:41.941Z,1.45
2022-10-03T11:12:37.973Z,1.93
2022-10-03T11:15:43.624Z,1.70
2022-10-03T11:18:26.687Z,1.42
2022-10-03T11:21:24.481Z,1.55
2022-10-03T11:24:35.921Z,1.60
2022-10-03T11:27:30.657Z,1.92
2022-10-03T11:30:22.853Z,1.80
2022-10-03T11:33:34.088Z,1.90
2022-10-03T11:36:47.470Z,1.65
2022-10-03T11:39:26.811Z,1.58
2022-10-03T11:42:09.481Z,1.80
2022-10-03T11:45:06.520Z,1.42
2022-10-03T11:47:51.946Z,1.52
2022-10-03T11:50:26.988Z,1.70
2022-10-03T11:53:00.064Z,1.48
2022-10-03T11:55:39.490Z,1.73
2022-10-03T11:58:24.260Z,1.60
2022-10-03T12:01:22.514Z,1.65
2022-10-03T12:04:26.735Z,1.73
2022-10-03T12:07:49.689Z,1.90
2022-10-03T12:10:54.283Z,1.95
2022-10-03T12:13:30.816Z,2.25
2022-10-03T12:16:02.247Z,2.28
2022-10-03T12:18:50.396Z,1.85
2022-10-03T12:21:49.703Z,2.00
2022-10-03T12:24:25.686Z,1.83
2022-10-03T12:27:06.419Z,2.45
2022-10-03T12:29:38.946Z,2.20
2022-10-03T12:32:35.112Z,2.30
2022-10-03T12:35:17.678Z,2.08
2022-10-03T12:38:18.914Z,2.22
2022-10-03T12:41:02.638Z,1.73
2022-10-03T12:43:51.851Z,1.92
2022-10-03T12:46:45.304Z,2.42
2022-10-03T12:49:24.677Z,2.10
2022-10-03T12:52:06.944Z,2.20
2022-10-03T12:55:00.996Z,2.35
2022-10-03T12:57:40.099Z,2.90
2022-10-03T13:03:16.852Z,2.00
2022-10-03T13:06:08.415Z,2.28
2022-10-03T13:08:57.045Z,2.13
2022-10-03T13:11:52.443Z,2.40
2022-10-03T13:14:44.410Z,1.85
2022-10-03T13:17:32.877Z,2.35
2022-10-03T13:20:10.214Z,2.22
2022-10-03T13:23:23.769Z,1.80
2022-10-03T13:26:10.926Z,2.42
2022-10-03T13:28:56.050Z,2.10
2022-10-03T13:31:28.374Z,2.08
2022-10-03T13:34:00.207Z,2.65
2022-10-03T13:36:34.483Z,2.33
2022-10-03T13:39:35.481Z,2.05
2022-10-03T13:42:22.047Z,2.65
2022-10-03T13:44:55.347Z,2.78
2022-10-03T13:47:35.892Z,2.63
2022-10-03T13:50:15.121Z,2.22
2022-10-03T13:55:57.486Z,2.85
2022-10-03T13:58:43.970Z,2.90
2022-10-03T14:01:17.223Z,2.95
2022-10-03T14:03:50.599Z,2.80
2022-10-03T14:06:41.439Z,2.90
2022-10-03T14:09:57.740Z,2.90
2022-10-03T14:13:02.664Z,2.33
2022-10-03T14:15:44.024Z,2.45
2022-10-03T14:18:46.933Z,2.60
2022-10-03T14:21:35.553Z,3.10
2022-10-03T14:24:20.257Z,3.10
2022-10-03T14:27:10.879Z,2.50
2022-10-03T14:30:02.916Z,2.92
2022-10-03T14:32:48.139Z,2.63
2022-10-03T14:35:43.048Z,2.92
2022-10-03T14:38:53.899Z,2.40
2022-10-03T14:41:26.318Z,2.67
2022-10-03T14:44:00.665Z,3.65
2022-10-03T14:46:33.935Z,2.60
2022-10-03T14:49:05.322Z,3.50
2022-10-03T14:51:40.063Z,3.00
2022-10-03T14:54:42.690Z,2.65
2022-10-03T14:57:28.616Z,2.65
2022-10-03T14:59:58.158Z,2.65
2022-10-03T15:02:36.644Z,2.38
2022-10-03T15:05:33.489Z,2.85
2022-10-03T15:08:14.448Z,2.67
2022-10-03T15:10:42.872Z,2.85
2022-10-03T15:13:10.690Z,2.50
2022-10-03T15:15:39.572Z,2.30
2022-10-03T15:18:13.015Z,2.90
2022-10-03T15:20:42.283Z,3.05
2022-10-03T15:25:53.715Z,3.22
2022-10-03T15:28:44.138Z,3.20
2022-10-03T15:31:16.930Z,3.30
2022-10-03T15:33:45.660Z,3.67
2022-10-03T15:36:24.516Z,3.50
2022-10-03T15:39:00.274Z,3.80
2022-10-03T15:41:28.206Z,3.00
2022-10-03T15:44:22.001Z,3.30
2022-10-03T15:46:54.062Z,3.30
2022-10-03T15:49:27.921Z,3.70
2022-10-03T15:51:55.722Z,8.05
2022-10-03T15:54:26.287Z,9.48
2022-10-03T15:56:56.942Z,4.68
2022-10-03T15:59:28.216Z,4.10
2022-10-03T16:01:56.178Z,5.43
2022-10-03T16:04:33.701Z,4.72
2022-10-03T16:07:36.100Z,6.13
2022-10-03T16:10:18.569Z,6.25
2022-10-03T16:12:59.697Z,4.28
2022-10-03T16:15:51.279Z,3.95
2022-10-03T16:18:20.824Z,4.25
2022-10-03T16:20:54.319Z,4.38
2022-10-03T16:23:34.263Z,3.92
2022-10-03T16:26:06.983Z,3.47
2022-10-03T16:28:39.364Z,4.70
2022-10-03T16:31:17.289Z,4.72
2022-10-03T16:33:57.925Z,4.18
2022-10-03T16:36:25.553Z,4.80
2022-10-03T16:38:53.750Z,3.92
2022-10-03T16:41:40.602Z,3.85
2022-10-03T16:44:20.487Z,4.10
2022-10-03T16:46:48.369Z,3.90
2022-10-03T16:49:47.792Z,4.10
2022-10-03T16:52:18.527Z,4.03
2022-10-03T16:54:47.096Z,4.30
2022-10-03T16:57:27.116Z,4.53
2022-10-03T16:59:54.451Z,4.03
2022-10-03T17:02:28.217Z,4.13
2022-10-03T17:05:07.489Z,4.30
2022-10-03T17:07:44.174Z,4.13
2022-10-03T17:10:38.068Z,4.50
2022-10-03T17:13:19.542Z,4.88
2022-10-03T17:16:12.265Z,4.82
2022-10-03T17:18:44.523Z,4.50
2022-10-03T17:21:26.417Z,4.63
2022-10-03T17:24:09.162Z,4.60
2022-10-03T17:26:45.266Z,4.32
2022-10-03T17:29:18.290Z,4.30
2022-10-03T17:31:54.079Z,4.30
2022-10-03T17:34:38.750Z,4.38
2022-10-03T17:37:35.952Z,4.88
2022-10-03T17:40:23.218Z,4.32
2022-10-03T17:43:36.375Z,4.38
2022-10-03T17:46:14.852Z,4.82
2022-10-03T17:49:06.808Z,4.70
2022-10-03T17:51:40.284Z,5.00
2022-10-03T17:54:16.310Z,5.40
2022-10-03T17:56:56.962Z,5.25
2022-10-03T17:59:30.197Z,5.95
2022-10-03T18:02:35.681Z,5.57
2022-10-03T18:05:29.829Z,6.25
2022-10-03T18:08:01.411Z,5.75
2022-10-03T18:10:32.828Z,6.55
2022-10-03T18:13:02.528Z,6.50
2022-10-03T18:15:35.302Z,7.70
2022-10-03T18:18:34.257Z,6.93
2022-10-03T18:21:10.588Z,6.10
2022-10-03T18:23:56.005Z,6.88
2022-10-03T18:26:47.831Z,6.60
2022-10-03T18:29:35.608Z,7.25
2022-10-03T18:32:16.365Z,6.70
2022-10-03T18:35:05.009Z,7.57
2022-10-03T18:37:31.484Z,7.80
2022-10-03T18:39:59.775Z,7.90
2022-10-03T18:42:28.087Z,7.85
2022-10-03T18:44:59.489Z,7.85
2022-10-03T18:47:27.457Z,7.82
2022-10-03T18:50:32.957Z,8.45
2022-10-03T18:53:17.479Z,8.80
2022-10-03T18:55:52.211Z,8.60
2022-10-03T18:58:25.134Z,8.75
2022-10-03T19:01:20.257Z,9.15
2022-10-03T19:03:49.519Z,8.25
2022-10-03T19:06:19.611Z,9.43
2022-10-03T19:08:59.229Z,8.55
2022-10-03T19:11:37.001Z,8.38
2022-10-03T19:14:12.141Z,8.98
2022-10-03T19:17:09.096Z,8.27
2022-10-03T19:19:54.104Z,9.57
2022-10-03T19:22:33.788Z,10.50
2022-10-03T19:25:04.777Z,11.38
2022-10-03T19:27:52.541Z,10.70
2022-10-03T19:30:21.836Z,9.73
2022-10-03T19:33:08.289Z,10.02
2022-10-03T19:35:40.896Z,10.18
2022-10-03T19:38:16.392Z,9.80
2022-10-03T19:40:58.923Z,10.45
2022-10-03T19:43:49.386Z,12.88
2022-10-03T19:46:58.352Z,12.07
2022-10-03T19:49:50.819Z,13.90
2022-10-03T19:52:23.112Z,17.40
2022-10-03T19:54:54.332Z,19.65
2022-10-03T19:57:39.015Z,21.38
2022-10-03T20:00:20.601Z,22.80
2022-10-03T20:02:54.500Z,21.70
2022-10-03T20:05:26.594Z,22.45
2022-10-03T20:08:02.140Z,21.17
2022-10-03T20:11:00.574Z,20.42
2022-10-03T20:13:27.942Z,21.63
2022-10-03T20:15:56.964Z,21.45
2022-10-03T20:18:29.131Z,20.13
2022-10-03T20:20:57.781Z,20.73
2022-10-03T20:23:28.652Z,20.75
2022-10-03T20:26:03.844Z,19.55
2022-10-03T20:28:46.003Z,18.00
2022-10-03T20:31:22.681Z,17.42
2022-10-03T20:33:52.231Z,17.40
2022-10-03T20:38:56.380Z,16.33
2022-10-03T20:44:11.919Z,17.98
2022-10-03T20:46:43.422Z,19.10
2022-10-03T20:49:37.200Z,17.90
2022-10-03T20:52:07.409Z,19.48
2022-10-03T20:54:48.464Z,18.17
2022-10-03T20:57:17.549Z,18.70
2022-10-03T20:59:55.533Z,18.15
2022-10-03T21:02:33.095Z,18.63
2022-10-03T21:05:11.040Z,16.83
2022-10-03T21:07:43.392Z,18.00
2022-10-03T21:10:22.897Z,16.95
2022-10-03T21:12:53.441Z,17.55
2022-10-03T21:15:30.108Z,17.05
2022-10-03T21:17:57.744Z,14.15
2022-10-03T21:20:31.255Z,14.02
2022-10-03T21:23:20.248Z,15.20
2022-10-03T21:25:50.068Z,13.70
2022-10-03T21:28:23.945Z,13.75
2022-10-03T21:31:09.560Z,13.95
2022-10-03T21:33:48.280Z,13.82
2022-10-03T21:36:31.226Z,14.50
2022-10-03T21:39:07.318Z,16.65
2022-10-03T21:41:47.534Z,13.75
2022-10-03T21:44:33.415Z,13.55
2022-10-03T21:47:04.808Z,13.45
2022-10-03T21:49:46.971Z,12.77
2022-10-03T21:52:34.914Z,13.18
2022-10-03T21:55:51.739Z,12.82
2022-10-03T21:58:49.617Z,12.35
2022-10-03T22:01:35.357Z,12.52
2022-10-03T22:04:11.858Z,13.23
2022-10-03T22:06:47.947Z,12.57
2022-10-03T22:09:15.517Z,12.27
2022-10-03T22:11:55.112Z,12.27
2022-10-03T22:14:55.838Z,11.45
2022-10-03T22:17:25.116Z,11.35
2022-10-03T22:19:59.804Z,11.23
2022-10-03T22:22:54.218Z,30.23
2022-10-03T22:25:54.225Z,14.48
2022-10-03T22:28:35.987Z,11.73
2022-10-03T22:31:18.527Z,11.65
2022-10-03T22:34:06.733Z,12.13
2022-10-03T22:36:38.250Z,11.55
2022-10-03T22:39:23.091Z,11.48
2022-10-03T22:41:54.000Z,11.25
2022-10-03T22:44:25.156Z,11.27
2022-10-03T22:46:56.867Z,11.25
2022-10-03T22:49:35.215Z,11.35
2022-10-03T22:52:04.362Z,11.67
2022-10-03T22:54:34.831Z,11.45
2022-10-03T22:57:09.958Z,12.15
2022-10-03T22:59:45.393Z,12.32
2022-10-03T23:02:12.692Z,11.15
2022-10-03T23:04:51.980Z,11.13
2022-10-03T23:09:58.887Z,11.10
2022-10-03T23:12:28.044Z,10.50
2022-10-03T23:14:56.130Z,10.27
2022-10-03T23:17:37.922Z,10.65
2022-10-03T23:20:40.461Z,11.55
2022-10-03T23:23:20.503Z,10.93
2022-10-03T23:26:05.839Z,10.10
2022-10-03T23:28:42.409Z,10.80
2022-10-03T23:31:47.711Z,10.20
2022-10-03T23:34:34.165Z,10.55
2022-10-03T23:37:10.909Z,10.32
2022-10-03T23:39:55.930Z,9.35
2022-10-03T23:42:31.478Z,9.57
2022-10-03T23:45:09.852Z,9.10
2022-10-03T23:47:58.866Z,9.87
2022-10-03T23:50:40.943Z,8.52
2022-10-03T23:53:15.851Z,9.25
2022-10-03T23:55:43.711Z,8.98
2022-10-03T23:58:28.918Z,9.68
